Time;durP1;ratioP1;P1;durP2;ratioP2;P2;SDS_P1;SDS_P2;PMS_P1;PMS_P2;Temp;Humidity;BMP_temperature;BMP_pressure;BME280_temperature;BME280_humidity;BME280_pressure;Samples;Min_cycle;Max_cycle;Signal;HPM_P1;HPM_P2
2021/07/20 00:00:49;;;;;;;16.17;11.63;;;;;;;23.85;69.49;100005.45;1770579;79;21000;-62
2021/07/20 00:03:16;;;;;;;17.00;11.22;;;;;;;23.85;69.51;100006.80;1725986;81;21042;-62
2021/07/20 00:05:42;;;;;;;16.87;12.50;;;;;;;23.85;69.47;100003.30;1731505;80;21054;-62
2021/07/20 00:08:10;;;;;;;18.52;12.05;;;;;;;23.88;69.62;99999.65;1771849;79;21794;-62
2021/07/20 00:10:55;;;;;;;19.45;13.72;;;;;;;23.93;69.64;99995.78;1755960;79;21783;-63
2021/07/20 00:13:22;;;;;;;18.15;12.45;;;;;;;23.99;69.45;99995.94;1764352;80;21054;-62
2021/07/20 00:15:51;;;;;;;17.57;11.12;;;;;;;24.02;69.18;99998.19;1750491;79;21102;-61
2021/07/20 00:18:20;;;;;;;16.42;11.30;;;;;;;23.98;69.08;99992.97;1763102;80;21109;-62
2021/07/20 00:20:47;;;;;;;13.80;10.48;;;;;;;23.96;69.03;99993.72;1760333;79;22064;-62
2021/07/20 00:23:13;;;;;;;14.05;11.38;;;;;;;23.99;68.90;99995.44;1761958;80;21076;-62
2021/07/20 00:25:42;;;;;;;17.50;11.65;;;;;;;24.01;68.81;99993.87;1761903;79;21561;-62
2021/07/20 00:28:08;;;;;;;17.17;12.45;;;;;;;24.02;68.91;100003.56;1765549;80;21126;-63
2021/07/20 00:30:34;;;;;;;18.48;12.65;;;;;;;24.01;68.87;100003.28;1754624;80;21086;-62
2021/07/20 00:33:01;;;;;;;17.10;12.63;;;;;;;23.93;68.89;100006.53;1775445;80;22429;-62
2021/07/20 00:35:27;;;;;;;17.05;12.53;;;;;;;23.88;69.10;100006.36;1768344;80;21070;-62
2021/07/20 00:37:54;;;;;;;16.40;11.48;;;;;;;23.85;69.19;100002.77;1730734;80;21608;-62
2021/07/20 00:40:20;;;;;;;18.67;13.03;;;;;;;23.85;69.19;99995.24;1763958;79;21066;-62
2021/07/20 00:42:49;;;;;;;22.10;13.20;;;;;;;23.89;69.17;99997.27;1765912;80;21016;-62
2021/07/20 00:45:16;;;;;;;15.58;11.25;;;;;;;23.93;69.02;100002.50;1724689;79;21107;-62
2021/07/20 00:47:45;;;;;;;15.85;12.07;;;;;;;23.95;68.93;100001.47;1762402;79;21085;-62
2021/07/20 00:50:15;;;;;;;19.37;12.70;;;;;;;23.96;68.86;99996.41;1763400;79;21073;-62
2021/07/20 00:52:42;;;;;;;16.90;13.38;;;;;;;23.96;68.77;100003.13;1766539;80;21038;-62
2021/07/20 00:55:12;;;;;;;19.90;13.10;;;;;;;23.89;68.78;99994.59;1772487;80;21098;-62
2021/07/20 00:57:38;;;;;;;19.67;12.75;;;;;;;23.89;68.77;99992.44;1770590;80;21468;-63
2021/07/20 01:00:07;;;;;;;20.72;12.10;;;;;;;23.87;68.79;99992.65;1764047;79;21517;-62
2021/07/20 01:02:34;;;;;;;18.12;12.18;;;;;;;23.89;68.63;99990.56;1696781;82;21130;-62
2021/07/20 01:05:04;;;;;;;22.35;14.05;;;;;;;23.90;68.44;99986.81;1738514;81;21118;-62
2021/07/20 01:07:30;;;;;;;17.85;13.60;;;;;;;23.93;68.29;99988.25;1752234;80;21065;-63
2021/07/20 01:09:57;;;;;;;15.55;11.45;;;;;;;23.92;68.29;99990.12;1752346;81;21126;-62
2021/07/20 01:12:26;;;;;;;17.62;12.78;;;;;;;23.90;68.43;99986.81;1752814;81;21110;-62
2021/07/20 01:14:52;;;;;;;17.42;12.43;;;;;;;23.86;68.48;99989.65;1723022;81;21070;-62
2021/07/20 01:17:19;;;;;;;14.35;11.15;;;;;;;23.85;68.53;99992.02;1750103;79;21079;-62
2021/07/20 01:19:54;;;;;;;18.35;11.50;;;;;;;23.87;68.48;99991.81;1736073;79;21065;-63
2021/07/20 01:22:30;;;;;;;15.48;10.95;;;;;;;23.86;68.74;99998.24;1755009;80;22181;-63
2021/07/20 01:25:00;;;;;;;15.58;11.73;;;;;;;23.86;68.96;99997.71;1752638;81;21049;-63
2021/07/20 01:27:29;;;;;;;18.85;12.35;;;;;;;23.86;69.11;100007.11;1753414;80;21134;-63
2021/07/20 01:29:56;;;;;;;17.50;10.90;;;;;;;23.79;69.11;100007.67;1749287;81;21760;-63
2021/07/20 01:32:24;;;;;;;12.40;10.05;;;;;;;23.73;69.22;100013.91;1757993;80;21094;-63
2021/07/20 01:34:50;;;;;;;15.10;10.75;;;;;;;23.67;69.34;100007.55;1757748;81;21693;-63
2021/07/20 01:37:17;;;;;;;14.43;10.98;;;;;;;23.64;69.37;100003.95;1761327;79;21035;-63
2021/07/20 01:39:46;;;;;;;13.22;9.53;;;;;;;23.66;69.40;100009.11;1755318;80;21077;-62
2021/07/20 01:42:13;;;;;;;14.65;10.20;;;;;;;23.66;69.41;100011.80;1744377;81;21007;-62
2021/07/20 01:44:42;;;;;;;15.60;10.35;;;;;;;23.66;69.30;100009.92;1754736;81;21075;-63
2021/07/20 01:47:09;;;;;;;16.05;11.95;;;;;;;23.62;69.18;100007.39;1738339;79;21810;-63
2021/07/20 01:49:35;;;;;;;16.27;11.85;;;;;;;23.57;69.27;100003.19;1746123;80;21082;-63
2021/07/20 01:52:05;;;;;;;17.62;12.40;;;;;;;23.52;69.14;100003.02;1747445;80;21078;-62
2021/07/20 01:54:33;;;;;;;19.77;12.75;;;;;;;23.45;68.96;99997.69;1750400;81;21066;-62
2021/07/20 01:57:00;;;;;;;17.75;12.15;;;;;;;23.42;69.03;100005.33;1725529;81;21073;-62
2021/07/20 01:59:46;;;;;;;17.73;12.73;;;;;;;23.41;69.09;100001.02;1755894;81;21525;-63
2021/07/20 02:02:53;;;;;;;17.92;11.83;;;;;;;23.36;69.12;100012.40;1748695;80;21061;-63
2021/07/20 02:10:45;;;;;;;18.90;12.18;;;;;;;23.11;69.79;100007.78;1737091;81;21059;-63
2021/07/20 02:13:38;;;;;;;18.35;13.48;;;;;;;23.09;69.79;100007.70;1728032;81;21514;-63
2021/07/20 02:16:01;;;;;;;17.60;13.15;;;;;;;23.07;69.57;100005.77;1729946;81;21066;-63
2021/07/20 02:18:30;;;;;;;18.32;12.50;;;;;;;23.06;69.60;99998.21;1737596;81;21099;-63
2021/07/20 02:21:05;;;;;;;20.75;11.57;;;;;;;23.05;69.52;99995.70;1681316;82;21605;-63
2021/07/20 02:23:34;;;;;;;17.07;11.75;;;;;;;23.02;69.61;99991.61;1756141;81;21059;-62
2021/07/20 02:26:01;;;;;;;17.73;13.15;;;;;;;23.01;69.73;99987.27;1753774;79;21388;-63
2021/07/20 02:28:28;;;;;;;15.80;12.28;;;;;;;23.03;69.72;99993.77;1761918;81;21071;-63
2021/07/20 02:30:55;;;;;;;18.82;12.75;;;;;;;23.02;69.29;99992.14;1756299;79;21365;-63
2021/07/20 02:33:22;;;;;;;20.27;12.30;;;;;;;22.99;69.13;99994.72;1726625;81;21054;-63
2021/07/20 02:35:50;;;;;;;18.90;12.07;;;;;;;22.96;69.26;99999.16;1742836;81;21115;-63
2021/07/20 02:38:19;;;;;;;18.87;13.15;;;;;;;22.94;69.39;99991.33;1753909;81;21328;-63
2021/07/20 02:40:47;;;;;;;15.45;12.10;;;;;;;22.94;69.69;99991.85;1751936;81;21016;-63
2021/07/20 02:43:14;;;;;;;15.83;11.78;;;;;;;22.93;69.79;99982.14;1723799;81;21083;-62
2021/07/20 02:45:42;;;;;;;15.63;11.38;;;;;;;22.95;69.92;99986.28;1761083;81;21078;-63
2021/07/20 02:48:10;;;;;;;18.67;11.97;;;;;;;23.03;69.85;99991.08;1712154;81;21063;-63
2021/07/20 02:50:38;;;;;;;17.37;12.10;;;;;;;23.10;69.64;99985.19;1715566;81;21189;-63
2021/07/20 02:53:16;;;;;;;15.10;11.35;;;;;;;23.15;69.60;99986.73;1735204;82;21091;-63
2021/07/20 02:55:51;;;;;;;20.92;10.90;;;;;;;23.23;69.50;99988.32;1737695;80;21102;-62
2021/07/20 02:58:17;;;;;;;15.45;11.35;;;;;;;23.26;69.39;99988.70;1743466;81;21052;-62
2021/07/20 03:00:45;;;;;;;15.95;11.73;;;;;;;23.28;69.47;99987.16;1755666;80;21751;-62
2021/07/20 03:03:12;;;;;;;16.50;11.25;;;;;;;23.34;69.32;99991.66;1710223;81;21717;-62
2021/07/20 03:05:40;;;;;;;14.65;10.98;;;;;;;23.37;69.29;99991.23;1756549;79;21055;-63
2021/07/20 03:08:08;;;;;;;13.80;9.95;;;;;;;23.43;69.06;99999.75;1764129;79;21099;-64
2021/07/20 03:10:36;;;;;;;15.88;10.03;;;;;;;23.46;68.89;100004.69;1763457;79;21042;-64
2021/07/20 03:13:07;;;;;;;20.75;11.30;;;;;;;23.47;68.89;100011.72;1744666;79;21635;-64
2021/07/20 03:15:36;;;;;;;18.07;11.40;;;;;;;23.47;68.96;100011.72;1766798;80;22523;-64
2021/07/20 03:18:06;;;;;;;15.05;11.75;;;;;;;23.47;68.87;100014.41;1761108;80;21561;-64
2021/07/20 03:20:37;;;;;;;15.88;10.28;;;;;;;23.46;68.69;100024.83;1736044;80;21046;-65
2021/07/20 03:23:05;;;;;;;15.35;11.38;;;;;;;23.44;68.71;100025.57;1755105;80;21070;-65
2021/07/20 03:25:32;;;;;;;17.52;11.90;;;;;;;23.45;68.69;100026.39;1734922;80;21077;-64
2021/07/20 03:28:00;;;;;;;14.18;10.55;;;;;;;23.49;68.48;100023.06;1764076;80;21670;-63
2021/07/20 03:30:29;;;;;;;18.23;11.18;;;;;;;23.57;68.27;100015.27;1758105;80;21070;-63
2021/07/20 03:33:00;;;;;;;15.68;11.18;;;;;;;23.64;68.08;100012.01;1756993;79;21573;-62
2021/07/20 03:35:35;;;;;;;17.70;10.53;;;;;;;23.70;67.95;100015.68;1712255;80;22212;-63
2021/07/20 03:38:02;;;;;;;13.43;10.43;;;;;;;23.73;67.77;100019.27;1753578;79;21146;-64
2021/07/20 03:40:29;;;;;;;15.05;10.72;;;;;;;23.73;67.43;100027.33;1754740;79;21534;-63
2021/07/20 03:42:56;;;;;;;18.42;11.60;;;;;;;23.69;67.26;100024.80;1759034;80;21033;-65
2021/07/20 03:45:25;;;;;;;13.15;10.03;;;;;;;23.66;67.25;100026.56;1757910;80;21079;-66
2021/07/20 03:47:53;;;;;;;14.07;10.55;;;;;;;23.68;67.39;100021.27;1738190;79;21589;-65
2021/07/20 03:50:22;;;;;;;17.40;11.22;;;;;;;23.69;67.38;100023.45;1746539;80;21055;-64
2021/07/20 03:52:50;;;;;;;14.85;9.85;;;;;;;23.71;67.31;100026.73;1753895;80;21269;-65
2021/07/20 03:55:18;;;;;;;13.03;9.98;;;;;;;23.72;67.41;100021.64;1770930;80;21028;-64
2021/07/20 03:57:46;;;;;;;15.65;10.82;;;;;;;23.76;67.30;100030.12;1758069;80;21157;-64
2021/07/20 04:00:14;;;;;;;14.50;10.80;;;;;;;23.81;67.18;100024.38;1752980;80;21113;-64
2021/07/20 04:02:50;;;;;;;15.05;9.83;;;;;;;23.84;67.00;100020.45;1750377;79;21090;-64
2021/07/20 04:05:17;;;;;;;12.98;9.65;;;;;;;23.90;66.72;100028.45;1755637;79;21655;-64
2021/07/20 04:07:46;;;;;;;15.65;11.03;;;;;;;24.02;66.52;100028.56;1766606;79;20979;-67
2021/07/20 04:10:14;;;;;;;14.68;11.00;;;;;;;24.12;66.33;100028.07;1749518;79;21063;-65
2021/07/20 04:12:44;;;;;;;13.90;10.58;;;;;;;24.15;66.20;100033.01;1759922;80;21067;-64
2021/07/20 04:15:14;;;;;;;13.90;10.25;;;;;;;24.18;66.23;100036.61;1713601;80;21079;-64
2021/07/20 04:17:42;;;;;;;14.80;11.03;;;;;;;24.15;66.42;100035.70;1757809;80;21816;-64
2021/07/20 04:20:13;;;;;;;14.95;9.60;;;;;;;24.17;66.60;100038.16;1749010;80;21042;-64
2021/07/20 04:22:42;;;;;;;13.90;10.25;;;;;;;24.22;66.70;100033.77;1761980;79;21084;-64
2021/07/20 04:25:11;;;;;;;17.90;10.80;;;;;;;24.34;66.59;100034.38;1764316;80;21111;-64
2021/07/20 04:27:40;;;;;;;15.28;10.90;;;;;;;24.44;66.58;100031.50;1771382;79;21078;-64
2021/07/20 04:30:09;;;;;;;13.43;10.58;;;;;;;24.52;66.45;100032.25;1764001;79;21122;-64
2021/07/20 04:32:40;;;;;;;16.87;10.35;;;;;;;24.58;66.57;100033.55;1758127;80;21066;-63
2021/07/20 04:35:11;;;;;;;16.52;10.55;;;;;;;24.65;66.62;100035.64;1762397;80;21070;-64
2021/07/20 04:37:40;;;;;;;17.60;10.68;;;;;;;24.65;66.14;100033.48;1743898;80;21110;-62
2021/07/20 04:40:12;;;;;;;18.60;10.53;;;;;;;24.65;65.69;100039.67;1657959;83;21102;-63
2021/07/20 04:42:40;;;;;;;13.83;10.08;;;;;;;24.66;65.66;100036.45;1732617;80;21888;-63
2021/07/20 04:45:12;;;;;;;13.78;10.85;;;;;;;24.65;65.74;100034.30;1773103;79;21059;-65
2021/07/20 04:47:52;;;;;;;14.57;10.20;;;;;;;24.68;65.46;100036.23;1749560;80;21118;-64
2021/07/20 04:50:20;;;;;;;12.63;9.70;;;;;;;24.67;65.22;100035.42;1724281;80;21617;-63
2021/07/20 04:52:48;;;;;;;12.20;9.10;;;;;;;24.68;65.08;100037.07;1747867;79;21046;-65
2021/07/20 04:55:14;;;;;;;12.37;9.48;;;;;;;24.64;65.06;100035.86;1733544;82;21629;-66
2021/07/20 04:57:41;;;;;;;11.75;8.93;;;;;;;24.60;65.36;100039.52;1745669;79;21095;-64
2021/07/20 05:00:10;;;;;;;15.05;10.00;;;;;;;24.61;65.68;100038.48;1754977;79;21100;-66
2021/07/20 05:02:41;;;;;;;15.10;9.55;;;;;;;24.66;65.46;100042.67;1745809;81;21329;-68
2021/07/20 05:05:10;;;;;;;12.75;10.03;;;;;;;24.69;65.55;100040.58;1728535;82;21122;-68
2021/07/20 05:07:37;;;;;;;16.05;11.48;;;;;;;24.68;65.41;100049.68;1744404;80;21316;-66
2021/07/20 05:10:06;;;;;;;13.78;10.48;;;;;;;24.66;65.53;100049.40;1730495;80;21088;-65
2021/07/20 05:12:34;;;;;;;13.32;9.80;;;;;;;24.66;65.25;100048.05;1731842;80;21078;-62
2021/07/20 05:15:04;;;;;;;14.78;9.10;;;;;;;24.64;65.51;100046.62;1735419;80;21153;-68
2021/07/20 05:17:31;;;;;;;15.43;11.10;;;;;;;24.72;65.61;100038.25;1744782;80;21574;-59
2021/07/20 05:19:58;;;;;;;13.25;9.65;;;;;;;24.85;65.41;100037.28;1725093;81;21068;-65
2021/07/20 05:22:26;;;;;;;12.63;10.05;;;;;;;24.92;65.21;100029.95;1723494;82;21054;-65
2021/07/20 05:24:53;;;;;;;12.90;9.35;;;;;;;24.99;65.34;100031.20;1739221;80;21094;-67
2021/07/20 05:27:22;;;;;;;15.90;10.28;;;;;;;25.08;65.10;100027.67;1729657;80;21042;-67
2021/07/20 05:29:49;;;;;;;14.58;10.08;;;;;;;25.15;65.51;100029.75;1736387;80;21098;-70
2021/07/20 05:32:19;;;;;;;13.93;9.85;;;;;;;25.17;65.23;100028.48;1731566;81;21100;-68
2021/07/20 05:34:49;;;;;;;12.85;9.85;;;;;;;25.26;65.48;100030.86;1722279;82;20986;-67
2021/07/20 05:37:19;;;;;;;14.87;10.53;;;;;;;25.36;65.19;100025.24;1741768;80;21156;-67
2021/07/20 05:39:48;;;;;;;15.83;11.57;;;;;;;25.40;65.36;100032.33;1696168;82;21055;-69
2021/07/20 05:42:22;;;;;;;14.75;10.98;;;;;;;25.44;65.42;100028.68;1723162;82;21023;-68
2021/07/20 05:44:50;;;;;;;16.40;10.08;;;;;;;25.42;65.27;100035.64;1736601;80;22232;-67
2021/07/20 05:47:17;;;;;;;14.45;10.58;;;;;;;25.39;65.26;100038.25;1740907;80;21078;-69
2021/07/20 05:49:44;;;;;;;12.88;10.32;;;;;;;25.39;65.44;100044.98;1738378;80;21537;-68
2021/07/20 05:52:14;;;;;;;14.05;9.88;;;;;;;25.42;65.69;100046.41;1741843;82;21081;-67
2021/07/20 05:54:45;;;;;;;19.70;11.65;;;;;;;25.51;65.82;100049.06;1722021;81;21042;-66
2021/07/20 05:57:14;;;;;;;16.90;10.30;;;;;;;25.63;65.42;100042.89;1738201;80;21058;-66
2021/07/20 05:59:57;;;;;;;13.93;10.28;;;;;;;25.71;65.69;100040.69;1742346;80;21085;-65
2021/07/20 06:02:25;;;;;;;14.25;9.90;;;;;;;25.76;65.02;100035.42;1757853;80;21122;-65
2021/07/20 06:04:52;;;;;;;14.47;9.50;;;;;;;25.72;64.74;100028.86;1693693;82;21565;-64
2021/07/20 06:07:19;;;;;;;20.17;11.45;;;;;;;25.69;64.68;100024.47;1745787;79;21129;-66
2021/07/20 06:09:46;;;;;;;16.02;9.65;;;;;;;25.67;64.82;100020.66;1762456;79;21318;-65
2021/07/20 06:12:14;;;;;;;15.13;10.13;;;;;;;25.73;64.83;100011.62;1757406;79;21015;-67
2021/07/20 06:14:40;;;;;;;16.32;10.72;;;;;;;25.83;65.02;100018.33;1750604;79;21066;-66
2021/07/20 06:17:07;;;;;;;14.40;10.32;;;;;;;25.87;64.80;100015.45;1762678;79;21627;-63
2021/07/20 06:19:33;;;;;;;14.50;9.98;;;;;;;25.87;64.80;100012.25;1756915;79;21121;-66
2021/07/20 06:22:02;;;;;;;14.00;9.75;;;;;;;25.91;65.06;100013.41;1694876;82;21111;-66
2021/07/20 06:24:32;;;;;;;15.05;9.30;;;;;;;25.95;64.71;100009.75;1739569;80;21078;-65
2021/07/20 06:26:59;;;;;;;18.12;9.98;;;;;;;25.99;64.19;100017.68;1753624;80;21066;-60
2021/07/20 06:29:25;;;;;;;11.20;9.25;;;;;;;26.04;63.63;100021.00;1760197;79;21061;-62
2021/07/20 06:31:51;;;;;;;12.43;8.75;;;;;;;26.06;63.71;100014.88;1767088;79;21114;-59
2021/07/20 06:34:18;;;;;;;12.58;8.85;;;;;;;26.06;63.41;100014.88;1763465;79;21182;-63
2021/07/20 06:36:44;;;;;;;14.05;9.75;;;;;;;26.05;63.50;100016.73;1704602;82;21050;-60
2021/07/20 06:39:11;;;;;;;13.35;9.05;;;;;;;26.11;63.37;100012.30;1764576;79;21118;-59
2021/07/20 06:41:38;;;;;;;14.43;9.20;;;;;;;26.20;63.04;100016.80;1691959;80;21122;-66
2021/07/20 06:44:05;;;;;;;11.50;8.28;;;;;;;26.30;62.02;100015.14;1749399;80;21111;-73
2021/07/20 06:46:32;;;;;;;11.10;8.88;;;;;;;26.40;61.83;100013.20;1763609;79;21996;-72
2021/07/20 06:48:59;;;;;;;13.35;9.88;;;;;;;26.48;61.70;100019.59;1755227;79;21119;-62
2021/07/20 06:51:28;;;;;;;14.23;10.10;;;;;;;26.57;61.62;100024.63;1750443;80;21138;-71
2021/07/20 06:53:54;;;;;;;12.25;9.23;;;;;;;26.67;61.54;100027.56;1721352;80;21109;-75
2021/07/20 06:56:29;;;;;;;13.55;9.83;;;;;;;26.78;61.47;100025.38;1757587;79;21388;-69
2021/07/20 06:58:55;;;;;;;10.82;8.88;;;;;;;26.90;61.17;100033.95;1759068;80;21161;-70
2021/07/20 07:01:23;;;;;;;12.37;8.73;;;;;;;27.02;60.96;100030.70;1748333;80;21141;-69
2021/07/20 07:04:06;;;;;;;11.97;9.40;;;;;;;27.17;60.01;100034.23;1762726;79;21596;-67
2021/07/20 07:06:34;;;;;;;14.30;9.98;;;;;;;27.29;59.50;100035.56;1763210;79;21545;-74
2021/07/20 07:09:01;;;;;;;12.30;9.48;;;;;;;27.37;59.41;100035.14;1757103;80;21106;-70
2021/07/20 07:11:27;;;;;;;11.33;8.83;;;;;;;27.44;59.23;100035.83;1726149;79;21387;-69
2021/07/20 07:13:54;;;;;;;12.15;9.35;;;;;;;27.52;58.54;100032.73;1718926;80;21103;-71
2021/07/20 07:16:21;;;;;;;12.78;9.73;;;;;;;27.57;58.66;100034.17;1764051;79;21043;-69
2021/07/20 07:18:48;;;;;;;13.03;9.85;;;;;;;27.66;58.17;100031.07;1766185;79;21098;-70
2021/07/20 07:21:15;;;;;;;12.13;9.53;;;;;;;27.71;57.28;100032.51;1747387;80;21082;-72
2021/07/20 07:23:42;;;;;;;13.65;9.25;;;;;;;27.72;57.08;100034.13;1750968;80;22613;-73
2021/07/20 07:26:10;;;;;;;12.47;9.15;;;;;;;27.70;56.97;100020.05;1741203;80;21094;-67
2021/07/20 07:28:37;;;;;;;12.03;9.28;;;;;;;27.67;57.02;100023.23;1750497;80;21062;-70
2021/07/20 07:31:04;;;;;;;16.20;9.90;;;;;;;27.66;56.89;100017.02;1731185;80;21058;-60
2021/07/20 07:33:31;;;;;;;11.68;8.98;;;;;;;27.73;56.61;100019.56;1751640;79;21141;-61
2021/07/20 07:35:57;;;;;;;14.73;9.73;;;;;;;27.73;56.35;100017.66;1759586;79;21798;-64
2021/07/20 07:38:23;;;;;;;12.07;9.83;;;;;;;27.75;56.74;100013.37;1750178;80;21133;-72
2021/07/20 07:40:53;;;;;;;14.15;9.53;;;;;;;27.80;56.39;100014.80;1754382;79;21075;-67
2021/07/20 07:43:21;;;;;;;11.65;9.65;;;;;;;27.77;56.41;100016.64;1748894;80;21553;-69
2021/07/20 07:45:51;;;;;;;12.85;9.78;;;;;;;27.73;55.65;100010.09;1754972;79;21059;-67
2021/07/20 07:48:17;;;;;;;13.58;10.55;;;;;;;27.68;56.15;100008.12;1678149;82;21593;-63
2021/07/20 07:50:44;;;;;;;12.00;9.50;;;;;;;27.65;56.56;100009.16;1756521;80;21077;-69
2021/07/20 07:53:10;;;;;;;11.38;10.15;;;;;;;27.60;56.35;100010.72;1757838;80;21055;-69
2021/07/20 07:55:36;;;;;;;13.50;10.63;;;;;;;27.57;56.50;100005.80;1722247;80;21083;-67
2021/07/20 07:58:04;;;;;;;15.75;11.57;;;;;;;27.52;56.39;100011.62;1763105;80;21050;-68
2021/07/20 08:00:31;;;;;;;12.85;10.50;;;;;;;27.48;55.95;99996.44;1767917;79;21121;-68
2021/07/20 08:02:59;;;;;;;14.03;10.10;;;;;;;27.53;55.95;100008.69;1747753;79;21329;-69
2021/07/20 08:05:26;;;;;;;15.40;10.25;;;;;;;27.58;55.81;100014.17;1753795;79;21690;-70
2021/07/20 08:07:53;;;;;;;15.13;11.93;;;;;;;27.61;55.89;100010.98;1726484;81;21130;-69
2021/07/20 08:10:19;;;;;;;13.45;10.55;;;;;;;27.68;56.15;100021.64;1759163;80;21093;-69
2021/07/20 08:12:46;;;;;;;13.72;10.60;;;;;;;27.71;55.67;100020.34;1728314;81;21174;-69
2021/07/20 08:15:15;;;;;;;12.18;10.60;;;;;;;27.75;55.42;100020.13;1751638;80;21707;-68
2021/07/20 08:17:41;;;;;;;15.15;10.20;;;;;;;27.83;55.21;100024.31;1748756;81;21165;-70
2021/07/20 08:20:09;;;;;;;13.35;10.00;;;;;;;27.90;55.46;100020.91;1743592;81;21526;-68
2021/07/20 08:22:36;;;;;;;15.68;10.43;;;;;;;27.96;55.41;100019.97;1754718;80;21114;-67
2021/07/20 08:25:10;;;;;;;12.75;10.72;;;;;;;28.06;55.11;100021.98;1750821;80;21632;-68
2021/07/20 08:27:50;;;;;;;13.58;10.13;;;;;;;28.14;54.65;100014.29;1726114;81;21055;-68
2021/07/20 08:30:18;;;;;;;12.60;9.20;;;;;;;28.19;54.52;100010.81;1760423;80;21517;-71
2021/07/20 08:32:51;;;;;;;12.65;9.83;;;;;;;28.27;54.43;100014.45;1749340;79;21093;-69
2021/07/20 08:35:25;;;;;;;11.00;8.50;;;;;;;28.37;54.50;100007.02;1752424;80;21636;-70
2021/07/20 08:37:53;;;;;;;13.00;8.95;;;;;;;28.47;53.93;100012.56;1732323;81;22354;-72
2021/07/20 08:40:34;;;;;;;9.80;8.20;;;;;;;28.51;53.91;100008.30;1754734;81;21095;-69
2021/07/20 08:43:24;;;;;;;10.78;9.68;;;;;;;28.55;53.64;100005.91;1754031;80;21102;-69
2021/07/20 08:46:17;;;;;;;14.87;10.82;;;;;;;28.56;53.13;100006.20;1743292;81;21141;-69
2021/07/20 08:49:04;;;;;;;14.03;10.50;;;;;;;28.55;53.15;100005.91;1754157;80;21636;-69
2021/07/20 08:51:52;;;;;;;12.25;9.50;;;;;;;28.58;52.83;100004.59;1761055;80;21106;-69
2021/07/20 08:54:47;;;;;;;12.05;9.28;;;;;;;28.62;53.00;100009.27;1738223;80;21590;-70
2021/07/20 08:57:15;;;;;;;10.88;9.28;;;;;;;28.70;53.61;100003.41;1749350;79;21083;-70
2021/07/20 09:00:04;;;;;;;11.35;9.45;;;;;;;28.83;53.15;100002.22;1755479;80;21133;-71
2021/07/20 09:02:50;;;;;;;14.20;9.35;;;;;;;28.93;52.99;100002.84;1767602;79;21181;-77
2021/07/20 09:05:45;;;;;;;13.38;9.75;;;;;;;29.04;52.72;99992.41;1715663;80;21090;-70
2021/07/20 09:08:28;;;;;;;12.78;9.45;;;;;;;29.08;52.11;99987.30;1754297;80;21074;-72
2021/07/20 09:11:21;;;;;;;10.90;9.25;;;;;;;29.13;52.75;99986.55;1754618;79;21071;-71
2021/07/20 09:13:54;;;;;;;13.70;9.58;;;;;;;29.18;52.41;99986.63;1751239;79;21087;-69
2021/07/20 09:16:35;;;;;;;11.73;9.38;;;;;;;29.19;52.00;99986.37;1759081;79;21786;-70
2021/07/20 09:19:06;;;;;;;12.15;9.73;;;;;;;29.17;51.38;99980.91;1753706;79;21109;-72
2021/07/20 09:21:34;;;;;;;12.47;8.65;;;;;;;29.12;51.75;99978.96;1749631;79;21118;-72
2021/07/20 09:24:09;;;;;;;12.13;9.05;;;;;;;29.12;52.48;99974.91;1754994;80;21324;-68
2021/07/20 09:26:56;;;;;;;12.58;8.48;;;;;;;29.19;51.86;99972.83;1755659;80;21062;-69
2021/07/20 09:29:26;;;;;;;13.28;10.23;;;;;;;29.20;51.58;99971.77;1762138;79;21093;-70
2021/07/20 09:32:06;;;;;;;11.15;9.10;;;;;;;29.17;51.38;99971.43;1735659;80;22136;-71
2021/07/20 09:35:09;;;;;;;12.03;8.63;;;;;;;29.17;51.43;99964.66;1753988;79;21089;-70
2021/07/20 09:37:50;;;;;;;12.55;10.13;;;;;;;29.25;51.16;99961.48;1705624;80;21122;-72
2021/07/20 09:40:41;;;;;;;10.48;8.28;;;;;;;29.28;50.96;99958.27;1754871;79;21158;-68
2021/07/20 09:43:15;;;;;;;11.35;8.58;;;;;;;29.34;50.60;99964.02;1733321;80;21093;-68
2021/07/20 09:45:45;;;;;;;12.03;7.92;;;;;;;29.39;50.08;99960.00;1718302;80;22579;-67
2021/07/20 09:48:26;;;;;;;15.15;9.33;;;;;;;29.43;49.62;99958.39;1752956;79;21093;-69
2021/07/20 09:51:35;;;;;;;10.45;7.40;;;;;;;29.44;49.09;99955.98;1754682;80;21074;-69
2021/07/20 09:54:42;;;;;;;9.80;7.35;;;;;;;29.54;50.22;99953.05;1755262;79;21145;-69
2021/07/20 09:57:37;;;;;;;13.58;6.92;;;;;;;29.70;48.69;99953.45;1756122;80;21182;-70
2021/07/20 10:00:11;;;;;;;9.18;6.67;;;;;;;29.81;47.88;99944.35;1760212;80;22858;-70
2021/07/20 10:03:11;;;;;;;9.13;6.78;;;;;;;29.88;47.50;99947.38;1761610;80;21142;-68
2021/07/20 10:05:45;;;;;;;10.15;7.10;;;;;;;29.91;46.64;99946.83;1735974;80;21078;-69
2021/07/20 10:08:38;;;;;;;11.38;6.25;;;;;;;29.94;46.42;99950.38;1738579;79;21576;-69
2021/07/20 10:11:45;;;;;;;7.70;5.92;;;;;;;29.94;47.06;99948.51;1755694;79;21067;-73
2021/07/20 10:14:30;;;;;;;9.73;6.28;;;;;;;29.99;46.90;99934.97;1759730;80;21133;-72
2021/07/20 10:18:46;;;;;;;11.12;6.50;;;;;;;30.15;47.72;99931.78;1777924;78;22644;-71
2021/07/20 10:21:17;;;;;;;8.93;6.40;;;;;;;30.19;47.61;99929.36;1688436;83;21013;-71
2021/07/20 10:24:14;;;;;;;10.55;6.80;;;;;;;30.30;46.61;99924.81;1701981;83;21122;-70
2021/07/20 10:26:49;;;;;;;9.70;6.58;;;;;;;30.38;46.14;99921.62;1689350;83;21003;-68
2021/07/20 10:29:26;;;;;;;10.18;6.62;;;;;;;30.44;46.16;99927.33;1686398;83;21020;-70
2021/07/20 10:32:06;;;;;;;8.98;6.62;;;;;;;30.45;46.24;99924.89;1696326;82;21129;-71
2021/07/20 10:34:33;;;;;;;8.88;6.83;;;;;;;30.45;45.93;99923.53;1704697;83;21050;-70
2021/07/20 10:37:21;;;;;;;8.55;6.22;;;;;;;30.44;46.29;99916.47;1693463;83;21613;-62
2021/07/20 10:40:09;;;;;;;11.70;7.60;;;;;;;30.41;46.75;99916.99;1681148;83;21915;-70
2021/07/20 10:42:53;;;;;;;10.78;6.70;;;;;;;30.40;47.54;99915.93;1671484;83;21584;-70
2021/07/20 10:45:19;;;;;;;10.03;6.47;;;;;;;30.38;47.19;99922.98;1694614;83;21107;-68
2021/07/20 10:47:51;;;;;;;9.75;6.60;;;;;;;30.34;47.47;99918.56;1665482;83;21460;-70
2021/07/20 10:50:50;;;;;;;9.65;6.53;;;;;;;30.33;47.38;99912.07;1713732;81;23371;-70
2021/07/20 10:53:45;;;;;;;9.63;6.62;;;;;;;30.34;46.57;99911.78;1703197;84;21024;-65
2021/07/20 10:56:39;;;;;;;8.25;5.95;;;;;;;30.30;46.71;99911.24;1663091;84;21518;-73
2021/07/20 10:59:29;;;;;;;9.03;6.25;;;;;;;30.26;46.96;99905.53;1676616;83;21110;-74
2021/07/20 11:02:18;;;;;;;8.95;6.45;;;;;;;30.30;46.79;99907.17;1704948;83;21106;-73
2021/07/20 11:05:02;;;;;;;9.20;5.42;;;;;;;30.35;46.87;99915.33;1680585;83;21404;-71
2021/07/20 11:07:43;;;;;;;10.90;6.40;;;;;;;30.46;46.68;99918.36;1698514;83;21146;-72
2021/07/20 11:10:33;;;;;;;9.80;6.33;;;;;;;30.63;46.86;99923.60;1690082;83;21106;-71
2021/07/20 11:13:10;;;;;;;8.55;5.80;;;;;;;30.84;47.57;99917.66;1672818;84;21059;-75
2021/07/20 11:15:38;;;;;;;9.68;6.62;;;;;;;31.08;46.69;99913.91;1664940;84;21125;-74
2021/07/20 11:18:11;;;;;;;10.40;6.30;;;;;;;31.29;45.35;99910.66;1681188;83;21329;-70
2021/07/20 11:20:39;;;;;;;7.72;5.67;;;;;;;31.50;44.88;99910.64;1739079;82;21074;-77
2021/07/20 11:23:05;;;;;;;10.58;5.95;;;;;;;31.70;43.72;99907.11;1718675;81;21058;-65
2021/07/20 11:25:33;;;;;;;9.30;5.90;;;;;;;31.87;43.26;99914.15;1719966;82;21332;-72
2021/07/20 11:28:00;;;;;;;10.50;6.08;;;;;;;32.01;43.27;99909.21;1737195;80;21071;-71
2021/07/20 11:30:32;;;;;;;10.75;6.45;;;;;;;32.17;43.91;99903.19;1730961;81;21082;-72
2021/07/20 11:33:03;;;;;;;9.23;6.53;;;;;;;32.32;42.78;99896.06;1734753;82;21617;-71
2021/07/20 11:35:31;;;;;;;8.78;5.87;;;;;;;32.45;41.38;99896.81;1715075;81;21154;-71
2021/07/20 11:38:11;;;;;;;9.15;5.60;;;;;;;32.51;40.21;99892.14;1657542;84;21680;-73
2021/07/20 11:41:00;;;;;;;10.13;5.62;;;;;;;32.53;40.19;99891.30;1711992;82;21629;-73
2021/07/20 11:43:47;;;;;;;7.40;6.08;;;;;;;32.54;40.26;99886.13;1730821;80;22362;-70
2021/07/20 11:46:18;;;;;;;7.70;5.72;;;;;;;32.54;40.09;99879.33;1710409;82;21067;-71